Time;durP1;ratioP1;P1;durP2;ratioP2;P2;SDS_P1;SDS_P2;PMS_P1;PMS_P2;Temp;Humidity;BMP_temperature;BMP_pressure;BME280_temperature;BME280_humidity;BME280_pressure;Samples;Min_cycle;Max_cycle;Signal;HPM_P1;HPM_P2
2021/03/04 00:01:22;;;;;;;;;;;;;;;3.92;80.15;100305.13;5074842;28;19974;-63
2021/03/04 00:03:50;;;;;;;;;;;;;;;3.86;80.10;100302.34;5074958;28;19924;-64
2021/03/04 00:06:18;;;;;;;;;;;;;;;3.85;79.73;100298.13;5074600;28;19921;-64
2021/03/04 00:08:47;;;;;;;;;;;;;;;3.77;79.67;100294.44;5075081;28;19928;-63
2021/03/04 00:11:15;;;;;;;;;;;;;;;3.69;80.15;100285.78;5074719;28;20441;-63
2021/03/04 00:13:43;;;;;;;;;;;;;;;3.77;80.73;100281.84;5074788;28;19959;-64
2021/03/04 00:16:10;;;;;;;;;;;;;;;3.91;80.54;100283.19;5074941;28;19950;-63
2021/03/04 00:18:39;;;;;;;;;;;;;;;3.93;80.30;100279.06;5074737;28;19920;-64
2021/03/04 00:21:06;;;;;;;;;;;;;;;3.77;80.34;100284.34;5074637;28;19970;-63
2021/03/04 00:23:34;;;;;;;;;;;;;;;3.86;80.22;100277.09;5074581;28;19920;-64
2021/03/04 00:26:03;;;;;;;;;;;;;;;3.92;80.51;100273.94;5074543;28;19920;-64
2021/03/04 00:28:31;;;;;;;;;;;;;;;3.86;80.39;100264.47;5073270;28;20007;-64
2021/03/04 00:30:59;;;;;;;;;;;;;;;3.79;80.25;100267.59;5074383;28;19920;-64
2021/03/04 00:33:28;;;;;;;;;;;;;;;3.80;80.26;100264.28;5073850;28;20340;-63
2021/03/04 00:35:58;;;;;;;;;;;;;;;3.86;80.81;100254.38;5074378;28;19920;-63
2021/03/04 00:38:25;;;;;;;;;;;;;;;3.92;80.03;100254.63;5074314;28;19924;-63
2021/03/04 00:40:53;;;;;;;;;;;;;;;3.76;80.83;100251.50;5074671;28;19920;-64
2021/03/04 00:43:22;;;;;;;;;;;;;;;3.64;80.38;100249.41;5074515;28;20358;-64
2021/03/04 00:45:50;;;;;;;;;;;;;;;3.52;80.64;100246.44;5074571;28;19987;-63
2021/03/04 00:48:18;;;;;;;;;;;;;;;3.65;80.55;100243.53;5074485;28;19943;-63
2021/03/04 00:50:46;;;;;;;;;;;;;;;3.65;80.87;100243.53;5074137;28;20014;-63
2021/03/04 00:53:14;;;;;;;;;;;;;;;3.68;80.92;100238.59;5074208;28;19920;-64
2021/03/04 00:55:42;;;;;;;;;;;;;;;3.66;81.13;100230.13;5074090;28;19966;-63
2021/03/04 00:58:11;;;;;;;;;;;;;;;3.68;80.81;100233.56;5074122;28;19921;-63
2021/03/04 01:00:40;;;;;;;;;;;;;;;3.56;80.37;100233.13;5073970;28;19974;-63
2021/03/04 01:03:08;;;;;;;;;;;;;;;3.48;80.41;100216.84;5074075;28;20385;-63
2021/03/04 01:05:36;;;;;;;;;;;;;;;3.51;81.47;100214.44;5073959;28;19952;-63
2021/03/04 01:08:04;;;;;;;;;;;;;;;3.62;80.85;100208.13;5073943;28;19962;-64
2021/03/04 01:10:33;;;;;;;;;;;;;;;3.55;81.14;100216.25;5073840;28;20011;-63
2021/03/04 01:13:02;;;;;;;;;;;;;;;3.45;81.37;100211.72;5074208;28;19928;-64
2021/03/04 01:15:30;;;;;;;;;;;;;;;3.53;81.49;100212.81;5072734;28;19931;-63
2021/03/04 01:18:00;;;;;;;;;;;;;;;3.53;80.68;100219.56;5073883;28;19970;-64
2021/03/04 01:20:28;;;;;;;;;;;;;;;3.29;80.98;100214.44;5074138;28;20015;-63
2021/03/04 01:22:56;;;;;;;;;;;;;;;3.35;81.24;100209.66;5073832;28;20015;-64
2021/03/04 01:25:25;;;;;;;;;;;;;;;3.20;81.38;100211.59;5073849;28;20438;-63
2021/03/04 01:27:53;;;;;;;;;;;;;;;3.27;80.89;100211.03;5073778;28;19955;-63
2021/03/04 01:30:23;;;;;;;;;;;;;;;3.37;80.90;100195.44;5073759;28;19966;-64
2021/03/04 01:32:51;;;;;;;;;;;;;;;3.18;81.25;100198.09;5074009;28;19920;-64
2021/03/04 01:35:20;;;;;;;;;;;;;;;3.09;81.80;100192.72;5073760;28;20374;-64
2021/03/04 01:37:49;;;;;;;;;;;;;;;3.16;82.02;100194.66;5073673;28;19927;-63
2021/03/04 01:40:17;;;;;;;;;;;;;;;3.27;81.78;100185.81;5073714;28;19928;-63
2021/03/04 01:42:45;;;;;;;;;;;;;;;3.08;80.95;100201.06;5073583;28;19920;-64
2021/03/04 01:45:13;;;;;;;;;;;;;;;2.88;81.92;100187.72;5076817;28;20413;-63
2021/03/04 01:47:43;;;;;;;;;;;;;;;3.04;81.60;100189.16;5077516;28;20396;-63
2021/03/04 01:50:11;;;;;;;;;;;;;;;3.15;81.51;100172.75;5077480;28;19921;-63
2021/03/04 01:52:40;;;;;;;;;;;;;;;2.95;81.79;100173.69;5077497;28;19928;-63
2021/03/04 01:55:16;;;;;;;;;;;;;;;2.91;81.41;100172.69;5077506;28;20393;-64
2021/03/04 01:57:44;;;;;;;;;;;;;;;2.84;81.04;100174.94;5077655;28;19920;-63
2021/03/04 02:00:13;;;;;;;;;;;;;;;2.70;81.56;100167.72;5077234;28;19921;-63
2021/03/04 02:02:40;;;;;;;;;;;;;;;2.67;82.15;100167.59;5077299;28;19970;-64
2021/03/04 02:05:10;;;;;;;;;;;;;;;2.68;81.98;100169.34;5077150;28;20259;-61
2021/03/04 02:07:42;;;;;;;;;;;;;;;2.67;82.14;100162.56;5076878;28;19920;-61
2021/03/04 02:10:13;;;;;;;;;;;;;;;2.67;82.73;100165.09;5077166;28;19920;-62
2021/03/04 02:12:43;;;;;;;;;;;;;;;2.83;82.50;100163.16;5077208;28;19928;-63
2021/03/04 02:15:15;;;;;;;;;;;;;;;2.86;82.72;100165.75;5077046;28;19921;-62
2021/03/04 02:17:45;;;;;;;;;;;;;;;2.90;82.32;100160.06;5077095;28;19951;-61
2021/03/04 02:20:19;;;;;;;;;;;;;;;2.94;82.43;100157.69;5077002;28;19943;-63
2021/03/04 02:22:53;;;;;;;;;;;;;;;2.95;82.65;100140.94;5077003;28;20301;-63
2021/03/04 02:25:23;;;;;;;;;;;;;;;3.01;82.23;100138.59;5077185;28;19920;-62
2021/03/04 02:27:54;;;;;;;;;;;;;;;2.82;82.22;100141.25;5076895;28;20010;-63
2021/03/04 02:30:25;;;;;;;;;;;;;;;2.68;81.68;100144.13;5077057;28;19981;-64
2021/03/04 02:33:00;;;;;;;;;;;;;;;2.66;82.04;100133.13;5075566;28;20290;-62
2021/03/04 02:35:29;;;;;;;;;;;;;;;2.70;82.48;100137.50;5076746;28;20370;-63
2021/03/04 02:37:59;;;;;;;;;;;;;;;2.64;82.41;100128.81;5076624;28;19920;-62
2021/03/04 02:40:29;;;;;;;;;;;;;;;2.60;82.68;100129.50;5076624;28;19970;-63
2021/03/04 02:42:59;;;;;;;;;;;;;;;2.57;82.19;100125.22;5076546;28;19921;-64
2021/03/04 02:45:28;;;;;;;;;;;;;;;2.56;81.93;100123.53;5076823;28;20326;-63
2021/03/04 02:47:58;;;;;;;;;;;;;;;2.60;82.07;100120.31;5076466;28;19974;-63
2021/03/04 02:50:26;;;;;;;;;;;;;;;2.59;82.44;100115.22;5076369;28;19921;-63
2021/03/04 02:52:54;;;;;;;;;;;;;;;2.57;82.12;100115.16;5076324;28;19927;-61
2021/03/04 02:55:23;;;;;;;;;;;;;;;2.52;82.67;100110.75;5075772;28;19920;-63
2021/03/04 02:57:51;;;;;;;;;;;;;;;2.45;82.05;100111.28;5076198;28;19970;-63
2021/03/04 03:00:23;;;;;;;;;;;;;;;2.50;82.98;100103.13;5076259;28;19920;-63
2021/03/04 03:02:51;;;;;;;;;;;;;;;2.59;83.10;100108.50;5076523;28;19921;-63
2021/03/04 03:05:20;;;;;;;;;;;;;;;2.58;83.00;100101.75;5076410;28;19959;-63
2021/03/04 03:07:49;;;;;;;;;;;;;;;2.56;83.03;100100.84;5075929;28;19920;-63
2021/03/04 03:10:17;;;;;;;;;;;;;;;2.63;82.89;100095.22;5076018;28;19924;-63
2021/03/04 03:12:47;;;;;;;;;;;;;;;2.60;82.19;100092.59;5075995;28;19920;-63
2021/03/04 03:15:15;;;;;;;;;;;;;;;2.57;82.31;100095.00;5076171;28;19920;-63
2021/03/04 03:17:45;;;;;;;;;;;;;;;2.42;83.00;100094.44;5075311;28;19921;-63
2021/03/04 03:20:15;;;;;;;;;;;;;;;2.47;82.27;100092.91;5075853;28;19962;-63
2021/03/04 03:22:43;;;;;;;;;;;;;;;2.59;82.21;100092.53;5075838;28;20270;-64
2021/03/04 03:25:12;;;;;;;;;;;;;;;2.62;82.70;100093.50;5075676;28;19920;-63
2021/03/04 03:27:40;;;;;;;;;;;;;;;2.71;82.67;100091.31;5075725;28;20014;-64
2021/03/04 03:30:09;;;;;;;;;;;;;;;2.48;82.00;100084.56;5075559;28;20294;-63
2021/03/04 03:32:37;;;;;;;;;;;;;;;2.45;82.28;100088.63;5074377;28;19970;-63
2021/03/04 03:35:08;;;;;;;;;;;;;;;2.45;82.13;100084.44;5075609;28;20018;-63
2021/03/04 03:37:36;;;;;;;;;;;;;;;2.50;82.94;100088.00;5075595;28;19983;-64
2021/03/04 03:40:05;;;;;;;;;;;;;;;2.49;82.93;100081.28;5075741;28;20382;-63
2021/03/04 03:42:33;;;;;;;;;;;;;;;2.41;82.14;100087.66;5075271;28;20003;-63
2021/03/04 03:45:02;;;;;;;;;;;;;;;2.50;82.95;100084.63;5075370;28;19920;-63
2021/03/04 03:47:32;;;;;;;;;;;;;;;2.45;83.09;100079.41;5075212;28;19956;-63
2021/03/04 03:50:19;;;;;;;;;;;;;;;2.28;82.56;100090.50;5075339;28;20379;-63
2021/03/04 03:52:47;;;;;;;;;;;;;;;2.27;82.84;100082.91;5075320;28;19966;-64
2021/03/04 03:55:16;;;;;;;;;;;;;;;2.35;82.68;100077.34;5075177;28;19920;-63
2021/03/04 03:57:44;;;;;;;;;;;;;;;2.33;82.37;100068.88;5074979;28;19973;-63
2021/03/04 04:00:13;;;;;;;;;;;;;;;2.24;82.32;100078.59;5075087;28;20010;-63
2021/03/04 04:02:41;;;;;;;;;;;;;;;2.13;81.72;100084.03;5074980;28;20271;-63
2021/03/04 04:05:09;;;;;;;;;;;;;;;2.02;81.76;100076.91;5075309;28;19956;-63
2021/03/04 04:07:38;;;;;;;;;;;;;;;1.97;82.16;100082.56;5073786;28;20016;-63
2021/03/04 04:10:08;;;;;;;;;;;;;;;1.85;82.56;100077.91;5075201;28;19964;-63
2021/03/04 04:12:35;;;;;;;;;;;;;;;1.92;82.20;100076.50;5074816;28;19924;-64
2021/03/04 04:15:03;;;;;;;;;;;;;;;1.94;82.70;100077.44;5075048;28;19920;-63
2021/03/04 04:17:32;;;;;;;;;;;;;;;1.88;82.43;100078.03;5074724;28;19935;-63
2021/03/04 04:20:02;;;;;;;;;;;;;;;1.96;82.34;100075.81;5074612;28;20011;-63
2021/03/04 04:22:31;;;;;;;;;;;;;;;1.89;82.60;100083.94;5074945;28;19977;-63
2021/03/04 04:24:59;;;;;;;;;;;;;;;1.63;83.18;100077.00;5074550;28;19921;-63
2021/03/04 04:27:28;;;;;;;;;;;;;;;1.71;83.23;100061.41;5074579;28;20015;-63
2021/03/04 04:29:56;;;;;;;;;;;;;;;1.95;82.59;100053.97;5074434;28;20443;-63
2021/03/04 04:32:23;;;;;;;;;;;;;;;1.87;82.76;100050.31;5074360;28;20019;-63
2021/03/04 04:34:51;;;;;;;;;;;;;;;1.69;83.39;100044.53;5074308;28;19926;-63
2021/03/04 04:37:19;;;;;;;;;;;;;;;1.80;83.32;100048.34;5074408;28;19926;-63
2021/03/04 04:39:47;;;;;;;;;;;;;;;1.75;82.56;100045.63;5074248;28;19925;-63
2021/03/04 04:42:16;;;;;;;;;;;;;;;1.81;83.49;100045.00;5074265;28;19952;-64
2021/03/04 04:44:44;;;;;;;;;;;;;;;1.89;83.45;100041.16;5074249;28;19920;-63
2021/03/04 04:47:11;;;;;;;;;;;;;;;1.97;82.84;100039.78;5074168;28;19924;-64
2021/03/04 04:49:39;;;;;;;;;;;;;;;1.96;82.90;100030.53;5074237;28;19967;-64
2021/03/04 04:52:07;;;;;;;;;;;;;;;1.98;83.17;100039.84;5074316;28;20403;-64
2021/03/04 04:54:35;;;;;;;;;;;;;;;1.92;82.80;100019.47;5074175;28;20290;-63
2021/03/04 04:57:03;;;;;;;;;;;;;;;1.90;83.03;100012.66;5074177;28;20011;-63
2021/03/04 04:59:32;;;;;;;;;;;;;;;1.95;83.08;100017.06;5074061;28;19920;-64
2021/03/04 05:01:59;;;;;;;;;;;;;;;2.08;83.55;100020.06;5074406;28;19920;-64
2021/03/04 05:04:27;;;;;;;;;;;;;;;1.97;83.60;100012.09;5074025;28;20023;-63
2021/03/04 05:06:55;;;;;;;;;;;;;;;1.92;83.79;99998.50;5073864;28;19921;-64
2021/03/04 05:09:22;;;;;;;;;;;;;;;1.90;83.00;100002.59;5074028;28;20336;-63
2021/03/04 05:11:50;;;;;;;;;;;;;;;1.88;83.58;99991.63;5073897;28;19966;-63
2021/03/04 05:14:18;;;;;;;;;;;;;;;2.08;83.26;99983.16;5074189;28;20444;-64
2021/03/04 05:16:46;;;;;;;;;;;;;;;2.23;83.33;99978.69;5073932;28;19920;-63
2021/03/04 05:19:14;;;;;;;;;;;;;;;2.25;83.48;99973.72;5073558;28;19927;-64
2021/03/04 05:21:42;;;;;;;;;;;;;;;2.18;83.08;99975.16;5073888;28;19943;-64
2021/03/04 05:24:10;;;;;;;;;;;;;;;2.13;83.79;99971.63;5073797;28;20431;-64
2021/03/04 05:26:37;;;;;;;;;;;;;;;2.16;83.52;99969.19;5073772;28;19928;-63
2021/03/04 05:29:05;;;;;;;;;;;;;;;2.01;83.10;99979.56;5073693;28;19920;-63
2021/03/04 05:31:33;;;;;;;;;;;;;;;1.94;83.37;99970.03;5073751;28;20045;-63
2021/03/04 05:34:01;;;;;;;;;;;;;;;2.09;83.17;99968.94;5074085;28;19920;-63
2021/03/04 05:36:29;;;;;;;;;;;;;;;2.14;83.59;99955.69;5073963;28;19920;-63
2021/03/04 05:38:57;;;;;;;;;;;;;;;2.13;83.34;99958.16;5073700;28;19924;-63
2021/03/04 05:41:25;;;;;;;;;;;;;;;2.15;82.98;99961.59;5073507;28;19928;-64
2021/03/04 05:43:53;;;;;;;;;;;;;;;2.36;83.42;99957.34;5073700;28;19920;-63
2021/03/04 05:46:21;;;;;;;;;;;;;;;2.42;82.70;99958.44;5074184;28;19982;-64
2021/03/04 05:48:51;;;;;;;;;;;;;;;2.36;82.56;99953.16;5073456;28;19920;-63
2021/03/04 05:51:25;;;;;;;;;;;;;;;2.39;82.97;99958.31;5073532;28;19920;-63
2021/03/04 05:53:56;;;;;;;;;;;;;;;2.42;83.35;99955.06;5073482;28;20286;-63
2021/03/04 05:56:24;;;;;;;;;;;;;;;2.37;83.18;99956.53;5073598;28;20380;-63
2021/03/04 05:58:52;;;;;;;;;;;;;;;2.27;82.58;99957.88;5073747;28;19921;-63
2021/03/04 06:01:20;;;;;;;;;;;;;;;2.29;83.13;99960.44;5073468;28;19974;-63
2021/03/04 06:03:49;;;;;;;;;;;;;;;2.28;82.64;99969.63;5073340;28;19958;-63
2021/03/04 06:06:16;;;;;;;;;;;;;;;2.28;82.54;99969.63;5073125;28;19927;-64
2021/03/04 06:08:45;;;;;;;;;;;;;;;2.32;82.68;99965.59;5073526;28;19920;-62
2021/03/04 06:11:13;;;;;;;;;;;;;;;2.40;83.46;99975.13;5073566;28;19942;-61
2021/03/04 06:13:40;;;;;;;;;;;;;;;2.45;82.54;99967.72;5073357;28;19921;-62
2021/03/04 06:16:08;;;;;;;;;;;;;;;2.59;83.16;99962.38;5073308;28;19962;-63
2021/03/04 06:18:40;;;;;;;;;;;;;;;2.57;83.32;99974.06;5073338;28;20388;-63
2021/03/04 06:21:18;;;;;;;;;;;;;;;2.51;82.29;99966.31;5073316;28;20071;-63
2021/03/04 06:23:47;;;;;;;;;;;;;;;2.46;83.13;99967.81;5073304;28;19974;-63
2021/03/04 06:26:25;;;;;;;;;;;;;;;2.60;82.90;99968.28;5073161;28;19928;-63
2021/03/04 06:28:53;;;;;;;;;;;;;;;2.79;82.74;99970.63;5073256;28;20373;-63
2021/03/04 06:31:21;;;;;;;;;;;;;;;2.90;82.76;99968.50;5074690;28;19920;-63
2021/03/04 06:33:58;;;;;;;;;;;;;;;2.84;82.84;99973.31;5076820;28;20428;-63
2021/03/04 06:36:26;;;;;;;;;;;;;;;2.91;82.96;99960.13;5077000;28;20023;-63
2021/03/04 06:38:55;;;;;;;;;;;;;;;3.11;81.86;99956.59;5075391;28;20370;-63
2021/03/04 06:41:23;;;;;;;;;;;;;;;3.18;82.28;99961.91;5076670;28;19924;-63
2021/03/04 06:44:01;;;;;;;;;;;;;;;3.11;82.51;99964.19;5076553;28;19925;-63
2021/03/04 06:46:44;;;;;;;;;;;;;;;3.14;82.02;99959.25;5076752;28;20373;-63
2021/03/04 06:49:12;;;;;;;;;;;;;;;3.16;82.17;99953.44;5076368;28;20023;-63
2021/03/04 06:51:42;;;;;;;;;;;;;;;3.15;82.06;99968.50;5076914;28;19925;-64
2021/03/04 06:54:21;;;;;;;;;;;;;;;3.29;82.02;99964.75;5076225;28;20357;-63
2021/03/04 06:56:50;;;;;;;;;;;;;;;3.33;81.56;99967.47;5076349;28;19958;-63
2021/03/04 06:59:17;;;;;;;;;;;;;;;3.34;82.09;99963.25;5076263;28;19924;-63
2021/03/04 07:01:45;;;;;;;;;;;;;;;3.44;81.48;99957.69;5076069;28;20289;-63
2021/03/04 07:04:13;;;;;;;;;;;;;;;3.45;82.34;99961.94;5076239;28;19920;-64
2021/03/04 07:06:45;;;;;;;;;;;;;;;3.57;81.76;99962.34;5076109;28;19921;-63
2021/03/04 07:09:14;;;;;;;;;;;;;;;3.87;81.89;99959.88;5076426;28;20251;-63
2021/03/04 07:11:44;;;;;;;;;;;;;;;4.09;81.45;99964.75;5075966;28;19921;-63
2021/03/04 07:14:12;;;;;;;;;;;;;;;4.27;80.82;99970.34;5076206;28;20023;-63
2021/03/04 07:16:43;;;;;;;;;;;;;;;4.35;80.62;99957.94;5075874;28;19924;-63
2021/03/04 07:19:12;;;;;;;;;;;;;;;4.49;80.16;99964.22;5075802;28;19921;-63
2021/03/04 07:21:41;;;;;;;;;;;;;;;4.55;79.78;99962.75;5075828;28;20332;-63
2021/03/04 07:24:09;;;;;;;;;;;;;;;4.64;78.98;99962.13;5075626;28;20342;-63
2021/03/04 07:26:38;;;;;;;;;;;;;;;4.74;78.44;99959.03;5075719;28;19966;-63
2021/03/04 07:29:06;;;;;;;;;;;;;;;4.84;78.29;99955.94;5075635;28;20377;-63
2021/03/04 07:31:33;;;;;;;;;;;;;;;4.87;78.11;99960.22;5075502;28;20434;-63
2021/03/04 07:34:02;;;;;;;;;;;;;;;4.90;77.68;99960.28;5075753;28;19926;-63
2021/03/04 07:36:30;;;;;;;;;;;;;;;4.87;77.29;99956.00;5075539;28;19924;-63
2021/03/04 07:38:58;;;;;;;;;;;;;;;4.84;77.16;99945.81;5075630;28;19924;-63
2021/03/04 07:41:37;;;;;;;;;;;;;;;4.88;76.85;99947.59;5075297;28;19999;-63
2021/03/04 07:44:06;;;;;;;;;;;;;;;4.90;76.29;99942.59;5075699;28;20374;-63
2021/03/04 07:46:35;;;;;;;;;;;;;;;5.07;76.43;99949.78;5075365;28;19920;-63
2021/03/04 07:49:04;;;;;;;;;;;;;;;5.04;76.09;99949.72;5075354;28;19920;-63
2021/03/04 07:51:43;;;;;;;;;;;;;;;5.08;76.17;99945.59;5075091;28;19921;-63
2021/03/04 07:54:11;;;;;;;;;;;;;;;5.15;75.41;99948.31;5075560;28;19920;-63
2021/03/04 07:56:39;;;;;;;;;;;;;;;5.13;76.01;99938.97;5075056;28;19924;-63
2021/03/04 07:59:11;;;;;;;;;;;;;;;5.18;75.35;99938.25;5075413;28;19943;-63
2021/03/04 08:01:40;;;;;;;;;;;;;;;5.31;75.64;99937.75;5075038;28;19924;-63
2021/03/04 08:04:19;;;;;;;;;;;;;;;5.39;75.00;99933.75;5074905;28;19966;-63
2021/03/04 08:06:48;;;;;;;;;;;;;;;5.46;74.61;99918.69;5074613;28;20382;-64
2021/03/04 08:09:24;;;;;;;;;;;;;;;5.49;74.42;99926.34;5074971;28;19920;-63
2021/03/04 08:12:03;;;;;;;;;;;;;;;5.55;74.47;99929.88;5074694;28;19920;-63
2021/03/04 08:14:31;;;;;;;;;;;;;;;5.65;74.25;99915.75;5074785;28;20011;-63
2021/03/04 08:16:59;;;;;;;;;;;;;;;5.81;73.72;99917.78;5074590;28;19920;-63
2021/03/04 08:19:27;;;;;;;;;;;;;;;5.87;73.43;99912.91;5074682;28;19920;-63
2021/03/04 08:22:01;;;;;;;;;;;;;;;6.05;72.93;99909.09;5074547;28;19920;-63
2021/03/04 08:24:31;;;;;;;;;;;;;;;6.17;72.93;99900.03;5074578;28;19973;-63
2021/03/04 08:26:59;;;;;;;;;;;;;;;6.30;72.15;99904.50;5074830;28;19920;-63
2021/03/04 08:29:27;;;;;;;;;;;;;;;6.46;72.23;99899.78;5074374;28;19966;-63
2021/03/04 08:31:56;;;;;;;;;;;;;;;6.60;71.76;99895.81;5074324;28;20393;-63
2021/03/04 08:34:34;;;;;;;;;;;;;;;6.64;71.04;99901.81;5074426;28;20293;-63
2021/03/04 08:37:02;;;;;;;;;;;;;;;6.73;71.21;99902.81;5074681;28;19920;-63
2021/03/04 08:39:31;;;;;;;;;;;;;;;6.84;70.63;99902.16;5074302;28;19920;-63
2021/03/04 08:42:02;;;;;;;;;;;;;;;7.01;70.66;99900.75;5074144;28;19931;-64
2021/03/04 08:44:30;;;;;;;;;;;;;;;7.06;69.78;99891.53;5074276;28;20343;-64
2021/03/04 08:46:59;;;;;;;;;;;;;;;7.09;70.10;99891.59;5074668;28;20011;-63
2021/03/04 08:49:27;;;;;;;;;;;;;;;7.13;69.63;99888.25;5074541;28;19921;-63
2021/03/04 08:51:56;;;;;;;;;;;;;;;7.17;69.47;99887.50;5074147;28;19920;-63
2021/03/04 08:54:25;;;;;;;;;;;;;;;7.12;69.40;99881.50;5074032;28;19921;-63
2021/03/04 08:56:57;;;;;;;;;;;;;;;7.02;69.65;99874.56;5074107;28;19920;-63
2021/03/04 08:59:25;;;;;;;;;;;;;;;7.08;69.65;99874.69;5074679;28;20096;-63
2021/03/04 09:01:53;;;;;;;;;;;;;;;7.10;69.97;99873.00;5074076;28;19932;-63
2021/03/04 09:04:23;;;;;;;;;;;;;;;7.15;69.89;99876.47;5074222;28;20366;-64
2021/03/04 09:06:51;;;;;;;;;;;;;;;7.39;69.84;99872.63;5073718;28;19927;-63
2021/03/04 09:09:23;;;;;;;;;;;;;;;7.41;69.40;99870.13;5074015;28;19921;-63
2021/03/04 09:11:51;;;;;;;;;;;;;;;7.55;69.29;99863.56;5073910;28;19928;-63
2021/03/04 09:14:24;;;;;;;;;;;;;;;7.66;68.83;99862.00;5073834;28;19924;-63
2021/03/04 09:16:52;;;;;;;;;;;;;;;7.82;68.98;99858.00;5073967;28;20420;-64
2021/03/04 09:19:27;;;;;;;;;;;;;;;8.09;68.20;99859.19;5073802;28;20441;-63
2021/03/04 09:21:56;;;;;;;;;;;;;;;8.13;67.87;99850.75;5072651;28;19924;-63
2021/03/04 09:24:32;;;;;;;;;;;;;;;8.33;67.84;99852.69;5073810;28;19924;-63
2021/03/04 09:27:02;;;;;;;;;;;;;;;8.47;67.19;99846.91;5073758;28;19920;-64
2021/03/04 09:29:31;;;;;;;;;;;;;;;8.65;66.64;99847.09;5073678;28;19921;-63
2021/03/04 09:31:59;;;;;;;;;;;;;;;8.98;67.20;99836.34;5073687;28;19963;-63
2021/03/04 09:34:32;;;;;;;;;;;;;;;9.17;65.67;99833.13;5073975;28;19977;-63
2021/03/04 09:37:04;;;;;;;;;;;;;;;9.27;65.02;99824.69;5073630;28;19920;-63
2021/03/04 09:39:38;;;;;;;;;;;;;;;9.40;64.81;99836.69;5074317;28;20325;-63
2021/03/04 09:42:08;;;;;;;;;;;;;;;9.31;65.35;99828.97;5073670;28;19921;-64
2021/03/04 09:44:46;;;;;;;;;;;;;;;9.43;64.50;99815.44;5073629;28;19921;-63
2021/03/04 09:47:19;;;;;;;;;;;;;;;9.59;64.01;99816.41;5073552;28;19920;-64
2021/03/04 09:49:48;;;;;;;;;;;;;;;9.61;63.09;99814.72;5073594;28;19970;-64
2021/03/04 09:52:19;;;;;;;;;;;;;;;9.59;63.12;99811.31;5073391;28;20308;-64
2021/03/04 09:55:06;;;;;;;;;;;;;;;9.75;62.33;99807.97;5073672;28;19921;-64
2021/03/04 09:57:34;;;;;;;;;;;;;;;9.80;61.98;99803.75;5073468;28;19921;-64
2021/03/04 10:00:04;;;;;;;;;;;;;;;9.85;62.52;99799.53;5073531;28;20394;-64
2021/03/04 10:02:38;;;;;;;;;;;;;;;9.87;61.81;99792.75;5073462;28;19951;-64
2021/03/04 10:05:12;;;;;;;;;;;;;;;10.02;62.22;99797.91;5073416;28;19920;-64
2021/03/04 10:07:40;;;;;;;;;;;;;;;10.05;62.58;99796.19;5076801;28;19924;-64
2021/03/04 10:10:12;;;;;;;;;;;;;;;10.02;62.91;99788.56;5077116;28;19944;-64
2021/03/04 10:12:49;;;;;;;;;;;;;;;9.09;63.29;99659.09;5077036;28;19924;-64
2021/03/04 10:15:27;;;;;;;;;;;;;;;9.80;64.38;99802.06;5077042;28;20325;-63
2021/03/04 10:17:54;;;;;;;;;;;;;;;9.82;64.42;99794.41;5077022;28;19927;-63
2021/03/04 10:20:24;;;;;;;;;;;;;;;9.98;64.20;99796.19;5075731;28;20049;-64
2021/03/04 10:22:52;;;;;;;;;;;;;;;10.07;64.08;99791.13;5076924;28;20332;-64
2021/03/04 10:25:20;;;;;;;;;;;;;;;10.24;64.68;99789.50;5076804;28;19960;-64
2021/03/04 10:27:48;;;;;;;;;;;;;;;10.38;63.90;99797.19;5076663;28;19971;-64
2021/03/04 10:30:16;;;;;;;;;;;;;;;10.45;63.27;99797.19;5076800;28;19920;-64
2021/03/04 10:32:44;;;;;;;;;;;;;;;10.38;63.48;99787.81;5076847;28;19928;-64
2021/03/04 10:35:13;;;;;;;;;;;;;;;10.52;63.47;99796.34;5076965;28;19927;-64
2021/03/04 10:37:42;;;;;;;;;;;;;;;10.83;62.65;99789.56;5076388;28;19926;-64
2021/03/04 10:40:10;;;;;;;;;;;;;;;11.05;62.09;99782.72;5076657;28;19962;-64
2021/03/04 10:42:38;;;;;;;;;;;;;;;11.14;62.11;99782.72;5076539;28;19924;-64
2021/03/04 10:45:07;;;;;;;;;;;;;;;11.20;62.24;99777.63;5076612;28;19974;-64
2021/03/04 10:47:35;;;;;;;;;;;;;;;11.31;61.57;99781.84;5076406;28;19920;-63
2021/03/04 10:50:04;;;;;;;;;;;;;;;11.39;61.28;99767.34;5076407;28;20370;-63
2021/03/04 10:52:32;;;;;;;;;;;;;;;11.59;61.69;99767.25;5075076;28;19927;-63
2021/03/04 10:55:00;;;;;;;;;;;;;;;11.67;60.68;99765.53;5076337;28;19920;-63
2021/03/04 10:57:28;;;;;;;;;;;;;;;11.71;61.40;99762.13;5076296;28;19924;-63
2021/03/04 10:59:56;;;;;;;;;;;;;;;11.86;60.90;99759.53;5076409;28;20367;-63
2021/03/04 11:02:23;;;;;;;;;;;;;;;12.18;60.15;99753.38;5076157;28;19920;-63
2021/03/04 11:04:51;;;;;;;;;;;;;;;12.51;59.38;99748.03;5076009;28;19927;-63
2021/03/04 11:07:19;;;;;;;;;;;;;;;12.35;58.77;99741.34;5075907;28;19921;-63
2021/03/04 11:09:47;;;;;;;;;;;;;;;12.63;58.71;99735.16;5076038;28;19920;-63
2021/03/04 11:12:15;;;;;;;;;;;;;;;12.87;58.14;99732.38;5076224;28;20255;-63
2021/03/04 11:14:43;;;;;;;;;;;;;;;12.79;57.61;99729.03;5075927;28;19921;-63
2021/03/04 11:17:10;;;;;;;;;;;;;;;12.56;57.85;99725.81;5075512;28;19920;-63
2021/03/04 11:19:38;;;;;;;;;;;;;;;12.41;58.40;99715.69;5075884;28;20004;-63
2021/03/04 11:22:06;;;;;;;;;;;;;;;12.51;58.51;99717.31;5075896;28;20022;-63
2021/03/04 11:24:34;;;;;;;;;;;;;;;12.68;58.22;99710.34;5075800;28;20436;-63
2021/03/04 11:27:01;;;;;;;;;;;;;;;12.62;57.46;99710.41;5075814;28;19970;-63
2021/03/04 11:29:30;;;;;;;;;;;;;;;12.64;57.37;99699.28;5075780;28;19927;-63
2021/03/04 11:31:58;;;;;;;;;;;;;;;12.61;55.92;99690.78;5075479;28;19954;-63
2021/03/04 11:34:26;;;;;;;;;;;;;;;12.74;55.34;99689.81;5075642;28;20393;-63
2021/03/04 11:36:55;;;;;;;;;;;;;;;12.88;54.92;99690.53;5075527;28;19950;-64
2021/03/04 11:39:22;;;;;;;;;;;;;;;12.68;54.74;99687.31;5074384;28;19952;-63
2021/03/04 11:41:50;;;;;;;;;;;;;;;12.57;54.84;99695.06;5075444;28;20312;-63
2021/03/04 11:44:32;;;;;;;;;;;;;;;12.62;53.94;99684.81;5075458;28;20358;-62
2021/03/04 11:47:00;;;;;;;;;;;;;;;12.70;53.92;99683.00;5075312;28;19924;-62
2021/03/04 11:49:28;;;;;;;;;;;;;;;12.59;53.35;99679.72;5075357;28;19928;-65
2021/03/04 11:51:56;;;;;;;;;;;;;;;12.52;53.24;99684.03;5075480;28;19920;-63
2021/03/04 11:54:24;;;;;;;;;;;;;;;12.50;53.53;99680.63;5075188;28;19920;-63
2021/03/04 11:56:52;;;;;;;;;;;;;;;12.45;54.02;99668.75;5075004;28;20328;-63
2021/03/04 11:59:20;;;;;;;;;;;;;;;12.52;54.35;99668.69;5074958;28;20384;-64
2021/03/04 12:01:48;;;;;;;;;;;;;;;12.51;54.34;99661.84;5075057;28;19942;-63
2021/03/04 12:04:16;;;;;;;;;;;;;;;12.55;54.53;99657.53;5074858;28;20267;-63
2021/03/04 12:06:44;;;;;;;;;;;;;;;12.54;54.46;99651.59;5074747;28;19932;-63
2021/03/04 12:09:11;;;;;;;;;;;;;;;12.56;54.25;99649.88;5074827;28;19921;-62
2021/03/04 12:11:45;;;;;;;;;;;;;;;12.63;53.74;99651.50;5075210;28;19920;-63
2021/03/04 12:14:13;;;;;;;;;;;;;;;12.72;53.98;99655.66;5074656;28;19920;-63
2021/03/04 12:16:45;;;;;;;;;;;;;;;12.76;53.67;99654.81;5074850;28;19920;-62
2021/03/04 12:19:14;;;;;;;;;;;;;;;12.75;53.91;99653.09;5074683;28;19999;-62
2021/03/04 12:21:42;;;;;;;;;;;;;;;12.74;53.88;99648.84;5074672;28;19966;-63
2021/03/04 12:24:10;;;;;;;;;;;;;;;12.65;53.85;99654.03;5074899;28;19920;-63
2021/03/04 12:26:45;;;;;;;;;;;;;;;12.72;54.03;99645.44;5074957;28;20041;-63
2021/03/04 12:29:13;;;;;;;;;;;;;;;12.65;52.12;99648.91;5073682;28;19920;-63
2021/03/04 12:31:41;;;;;;;;;;;;;;;12.55;51.62;99649.84;5074808;28;20358;-62
2021/03/04 12:34:09;;;;;;;;;;;;;;;12.53;52.64;99649.03;5074297;28;19925;-63
2021/03/04 12:36:42;;;;;;;;;;;;;;;12.29;53.02;99650.09;5074498;28;19974;-62
2021/03/04 12:39:10;;;;;;;;;;;;;;;12.14;55.20;99644.25;5074893;28;19997;-64
2021/03/04 12:41:38;;;;;;;;;;;;;;;11.95;57.22;99646.06;5074623;28;20364;-64
2021/03/04 12:44:06;;;;;;;;;;;;;;;11.75;59.17;99653.91;5074239;28;20285;-63
2021/03/04 12:46:34;;;;;;;;;;;;;;;11.74;62.58;99649.63;5074492;28;20385;-64
2021/03/04 12:49:02;;;;;;;;;;;;;;;11.74;63.31;99649.63;5074780;28;19920;-64
2021/03/04 12:51:30;;;;;;;;;;;;;;;11.70;63.10;99647.97;5074474;28;20388;-65
2021/03/04 12:53:59;;;;;;;;;;;;;;;11.67;63.41;99652.19;5074934;28;20022;-64
2021/03/04 12:56:29;;;;;;;;;;;;;;;11.63;63.90;99645.41;5074141;28;20014;-64
2021/03/04 12:58:56;;;;;;;;;;;;;;;11.49;65.20;99642.94;5074174;28;19920;-63
2021/03/04 13:01:26;;;;;;;;;;;;;;;11.34;66.43;99650.69;5074094;28;19927;-64